createdAt,value
2019-05-01T00:02:44.479Z,100280.92
2019-05-01T00:05:17.361Z,100279.53
2019-05-01T00:07:48.704Z,100280.01
2019-05-01T00:10:21.465Z,100274.37
2019-05-01T00:12:51.913Z,100270.27
2019-05-01T00:15:25.613Z,100266.59
2019-05-01T00:17:57.065Z,100265.96
2019-05-01T00:20:27.900Z,100258.94
2019-05-01T00:22:58.740Z,100255.78
2019-05-01T00:25:30.324Z,100245.22
2019-05-01T00:28:02.656Z,100249.47
2019-05-01T00:30:34.411Z,100248.48
2019-05-01T00:33:05.350Z,100242.39
2019-05-01T00:35:35.979Z,100241.29
2019-05-01T00:38:06.916Z,100239.70
2019-05-01T00:40:38.675Z,100232.82
2019-05-01T00:43:09.614Z,100236.67
2019-05-01T00:45:41.869Z,100234.30
2019-05-01T00:48:12.671Z,100227.89
2019-05-01T00:50:44.866Z,100225.97
2019-05-01T00:53:15.514Z,100215.95
2019-05-01T00:56:06.483Z,100206.61
2019-05-01T00:58:51.182Z,100209.38
2019-05-01T01:01:39.929Z,100201.28
2019-05-01T01:04:12.652Z,100198.82
2019-05-01T01:06:43.554Z,100198.14
2019-05-01T01:09:14.494Z,100202.08
2019-05-01T01:11:45.425Z,100207.23
2019-05-01T01:14:16.460Z,100195.20
2019-05-01T01:16:49.186Z,100193.67
2019-05-01T01:19:20.183Z,100193.81
2019-05-01T01:21:51.821Z,100182.11
2019-05-01T01:24:22.363Z,100186.05
2019-05-01T01:26:53.302Z,100182.80
2019-05-01T01:29:24.426Z,100175.58
2019-05-01T01:31:55.483Z,100173.20
2019-05-01T01:34:26.432Z,100171.61
2019-05-01T01:36:57.148Z,100166.09
2019-05-01T01:39:28.598Z,100165.81
2019-05-01T01:42:00.154Z,100163.72
2019-05-01T01:44:35.796Z,100167.34
2019-05-01T01:47:06.738Z,100156.64
2019-05-01T01:49:38.073Z,100156.47
2019-05-01T01:52:08.813Z,100150.44
2019-05-01T01:54:39.653Z,100154.06
2019-05-01T01:57:10.839Z,100159.22
2019-05-01T01:59:42.147Z,100153.44
2019-05-01T02:02:21.982Z,100158.56
2019-05-01T02:05:06.338Z,100150.30
2019-05-01T02:07:38.543Z,100146.16
2019-05-01T02:10:09.539Z,100140.67
2019-05-01T02:12:41.161Z,100138.98
2019-05-01T02:15:12.270Z,100144.75
2019-05-01T02:17:44.508Z,100140.30
2019-05-01T02:20:16.164Z,100145.44
2019-05-01T02:22:47.101Z,100140.61
2019-05-01T02:25:18.138Z,100142.30
2019-05-01T02:27:53.682Z,100133.52
2019-05-01T02:30:26.566Z,100139.80
2019-05-01T02:32:59.323Z,100141.58
2019-05-01T02:35:31.335Z,100141.13
2019-05-01T02:38:04.499Z,100134.96
2019-05-01T02:40:51.615Z,100136.52
2019-05-01T02:43:24.114Z,100131.73
2019-05-01T02:45:58.118Z,100125.28
2019-05-01T02:48:31.647Z,100120.27
2019-05-01T02:51:02.835Z,100125.42
2019-05-01T02:53:35.925Z,100129.44
2019-05-01T02:56:22.768Z,100123.05
2019-05-01T02:58:56.982Z,100124.63
2019-05-01T03:01:45.063Z,100118.48
2019-05-01T03:04:01.286Z,100119.33
2019-05-01T03:06:33.857Z,100117.28
2019-05-01T03:09:07.867Z,100118.15
2019-05-01T03:11:39.484Z,100113.79
2019-05-01T03:14:12.838Z,100113.41
2019-05-01T03:16:43.957Z,100113.14
2019-05-01T03:19:16.019Z,100115.48
2019-05-01T03:21:51.189Z,100123.77
2019-05-01T03:24:24.492Z,100109.20
2019-05-01T03:26:55.694Z,100109.20
2019-05-01T03:29:26.859Z,100113.05
2019-05-01T03:32:15.940Z,100109.74
2019-05-01T03:34:30.869Z,100107.97
2019-05-01T03:37:01.470Z,100106.70
2019-05-01T03:39:32.425Z,100107.89
2019-05-01T03:42:04.532Z,100106.13
2019-05-01T03:44:35.123Z,100103.96
2019-05-01T03:47:07.407Z,100099.84
2019-05-01T03:49:39.043Z,100111.41
2019-05-01T03:52:09.776Z,100125.52
2019-05-01T03:54:42.455Z,100115.27
2019-05-01T03:57:13.883Z,100119.77
2019-05-01T03:59:45.027Z,100121.85
2019-05-01T04:02:33.202Z,100128.28
2019-05-01T04:04:56.399Z,100124.20
2019-05-01T04:07:28.041Z,100127.09
2019-05-01T04:09:58.834Z,100129.01
2019-05-01T04:12:30.200Z,100123.14
2019-05-01T04:15:01.523Z,100110.41
2019-05-01T04:17:36.659Z,100104.13
2019-05-01T04:20:08.111Z,100097.07
2019-05-01T04:22:39.041Z,100091.23
2019-05-01T04:25:10.952Z,100093.23
2019-05-01T04:27:43.175Z,100100.57
2019-05-01T04:30:25.579Z,100092.23
2019-05-01T04:32:58.260Z,100094.70
2019-05-01T04:35:30.770Z,100094.17
2019-05-01T04:38:02.501Z,100091.64
2019-05-01T04:40:34.961Z,100092.87
2019-05-01T04:43:06.614Z,100083.61
2019-05-01T04:45:37.963Z,100087.11
2019-05-01T04:48:09.490Z,100086.94
2019-05-01T04:50:41.166Z,100085.61
2019-05-01T04:53:11.898Z,100084.89
2019-05-01T04:55:45.071Z,100079.87
2019-05-01T04:58:16.926Z,100075.84
2019-05-01T05:00:47.906Z,100067.17
2019-05-01T05:03:22.616Z,100068.70
2019-05-01T05:05:53.648Z,100070.55
2019-05-01T05:08:24.689Z,100069.83
2019-05-01T05:11:00.590Z,100071.14
2019-05-01T05:13:46.948Z,100065.97
2019-05-01T05:16:19.823Z,100065.94
2019-05-01T05:18:50.898Z,100065.05
2019-05-01T05:21:24.218Z,100059.08
2019-05-01T05:23:55.501Z,100056.95
2019-05-01T05:26:26.335Z,100053.14
2019-05-01T05:28:58.865Z,100043.61
2019-05-01T05:31:29.972Z,100042.81
2019-05-01T05:34:02.293Z,100035.09
2019-05-01T05:36:35.516Z,100034.06
2019-05-01T05:39:09.214Z,100040.18
2019-05-01T05:41:40.517Z,100041.85
2019-05-01T05:44:11.369Z,100035.56
2019-05-01T05:46:42.026Z,100029.04
2019-05-01T05:49:13.286Z,100024.23
2019-05-01T05:51:47.174Z,100018.03
2019-05-01T05:54:31.468Z,100025.59
2019-05-01T05:57:08.099Z,100011.20
2019-05-01T05:59:52.660Z,100021.28
2019-05-01T06:02:29.882Z,100015.38
2019-05-01T06:05:22.695Z,100009.53
2019-05-01T06:07:57.733Z,100010.75
2019-05-01T06:10:35.214Z,100006.03
2019-05-01T06:13:18.008Z,100002.93
2019-05-01T06:15:51.526Z,100009.91
2019-05-01T06:18:27.381Z,100001.90
2019-05-01T06:21:02.367Z,100001.02
2019-05-01T06:23:45.436Z,100004.86
2019-05-01T06:26:31.900Z,99999.70
2019-05-01T06:29:02.359Z,99998.08
2019-05-01T06:31:33.714Z,99991.70
2019-05-01T06:34:04.956Z,99999.44
2019-05-01T06:36:35.889Z,100010.53
2019-05-01T06:39:11.712Z,100016.66
2019-05-01T06:41:43.211Z,100026.34
2019-05-01T06:44:17.183Z,100023.52
2019-05-01T06:47:03.271Z,100028.59
2019-05-01T06:49:45.599Z,100029.84
2019-05-01T06:52:24.901Z,100043.98
2019-05-01T06:54:54.167Z,100044.41
2019-05-01T06:57:26.119Z,100031.04
2019-05-01T07:00:03.155Z,100036.39
2019-05-01T07:02:35.077Z,100042.89
2019-05-01T07:05:24.954Z,100038.94
2019-05-01T07:07:56.922Z,100041.55
2019-05-01T07:10:39.110Z,100037.36
2019-05-01T07:13:05.016Z,100035.98
2019-05-01T07:15:38.824Z,100037.15
2019-05-01T07:18:11.456Z,100036.09
2019-05-01T07:20:51.332Z,100045.84
2019-05-01T07:23:22.690Z,100042.97
2019-05-01T07:25:53.400Z,100049.45
2019-05-01T07:28:29.010Z,100036.67
2019-05-01T07:30:59.475Z,100031.24
2019-05-01T07:33:32.263Z,100031.80
2019-05-01T07:36:07.087Z,100034.81
2019-05-01T07:38:38.367Z,100034.44
2019-05-01T07:41:09.115Z,100034.13
2019-05-01T07:44:01.014Z,100036.11
2019-05-01T07:46:54.381Z,100035.53
2019-05-01T07:49:25.921Z,100026.29
2019-05-01T07:51:56.236Z,100024.41
2019-05-01T07:54:26.859Z,100017.84
2019-05-01T07:56:58.635Z,100017.98
2019-05-01T07:59:30.586Z,100006.80
2019-05-01T08:02:02.668Z,100007.96
2019-05-01T08:04:36.279Z,99996.51
2019-05-01T08:07:06.252Z,99995.11
2019-05-01T08:09:38.835Z,99975.64
2019-05-01T08:12:09.358Z,99975.33
2019-05-01T08:14:40.293Z,99964.04
2019-05-01T08:17:18.107Z,99965.98
2019-05-01T08:19:53.231Z,99952.02
2019-05-01T08:22:25.939Z,99965.33
2019-05-01T08:24:58.641Z,99967.80
2019-05-01T08:27:43.246Z,99967.80
2019-05-01T08:30:32.513Z,99968.48
2019-05-01T08:33:09.830Z,99979.68
2019-05-01T08:35:40.858Z,99983.00
2019-05-01T08:38:11.673Z,99983.61
2019-05-01T08:40:44.455Z,99977.31
2019-05-01T08:43:18.158Z,99976.08
2019-05-01T08:45:52.815Z,99970.16
2019-05-01T08:48:24.947Z,99966.16
2019-05-01T08:50:59.396Z,99968.53
2019-05-01T08:53:29.793Z,99963.57
2019-05-01T08:56:01.445Z,99974.09
2019-05-01T08:58:32.384Z,99962.80
2019-05-01T09:01:05.077Z,99964.64
2019-05-01T09:03:37.847Z,99972.00
2019-05-01T09:06:08.414Z,99956.95
2019-05-01T09:08:39.492Z,99961.49
2019-05-01T09:11:10.565Z,99955.97
2019-05-01T09:13:43.437Z,99951.09
2019-05-01T09:16:14.369Z,99939.83
2019-05-01T09:18:46.021Z,99951.56
2019-05-01T09:21:16.959Z,99946.71
2019-05-01T09:23:51.477Z,99936.43
2019-05-01T09:26:33.890Z,99936.18
2019-05-01T09:29:23.990Z,99922.78
2019-05-01T09:31:56.701Z,99920.92
2019-05-01T09:34:27.220Z,99920.99
2019-05-01T09:36:58.235Z,99909.67
2019-05-01T09:39:30.602Z,99911.14
2019-05-01T09:42:01.224Z,99906.05
2019-05-01T09:44:34.049Z,99905.22
2019-05-01T09:47:06.053Z,99911.45
2019-05-01T09:49:36.710Z,99899.75
2019-05-01T09:52:18.904Z,99893.33
2019-05-01T09:54:58.640Z,99899.94
2019-05-01T09:57:30.923Z,99896.52
2019-05-01T10:00:02.865Z,99896.73
2019-05-01T10:02:33.403Z,99890.77
2019-05-01T10:05:07.892Z,99876.22
2019-05-01T10:07:40.247Z,99880.84
2019-05-01T10:10:12.150Z,99871.03
2019-05-01T10:12:46.941Z,99878.77
2019-05-01T10:15:15.766Z,99873.58
2019-05-01T10:17:46.599Z,99866.44
2019-05-01T10:20:17.750Z,99873.58
2019-05-01T10:22:48.888Z,99871.45
2019-05-01T10:25:19.827Z,99869.17
2019-05-01T10:27:53.041Z,99861.25
2019-05-01T10:30:43.922Z,99869.20
2019-05-01T10:33:16.186Z,99857.65
2019-05-01T10:36:03.918Z,99874.94
2019-05-01T10:38:39.986Z,99857.42
2019-05-01T10:41:10.444Z,99857.76
2019-05-01T10:43:41.337Z,99867.39
2019-05-01T10:46:11.866Z,99868.05
2019-05-01T10:48:42.711Z,99854.92
2019-05-01T10:51:13.476Z,99844.40
2019-05-01T10:53:44.166Z,99843.81
2019-05-01T10:56:14.899Z,99841.75
2019-05-01T10:58:46.178Z,99837.02
2019-05-01T11:01:18.314Z,99837.95
2019-05-01T11:03:49.156Z,99838.38
2019-05-01T11:06:20.426Z,99841.31
2019-05-01T11:08:52.466Z,99830.33
2019-05-01T11:11:23.183Z,99833.20
2019-05-01T11:13:54.023Z,99825.53
2019-05-01T11:16:27.008Z,99816.80
